Time;durP1;ratioP1;P1;durP2;ratioP2;P2;SDS_P1;SDS_P2;PMS_P1;PMS_P2;Temp;Humidity;BMP_temperature;BMP_pressure;BME280_temperature;BME280_humidity;BME280_pressure;Samples;Min_cycle;Max_cycle;Signal;HPM_P1;HPM_P2
2021/10/25 00:01:04;;;;;;;6.90;1.92;;;11.90;48.20;;;;;;20811805;28;80955;-71
2021/10/25 00:11:07;;;;;;;;;;;11.70;48.90;;;;;;20813334;28;80713;-72
2021/10/25 00:21:09;;;;;;;6.68;2.72;;;11.50;49.10;;;;;;20852451;27;80668;-72
2021/10/25 00:31:11;;;;;;;5.30;2.05;;;11.50;49.30;;;;;;20834919;28;80038;-73
2021/10/25 00:41:14;;;;;;;6.15;1.73;;;11.40;49.90;;;;;;20871710;28;81665;-73
2021/10/25 00:51:16;;;;;;;10.68;1.88;;;11.30;50.70;;;;;;20885827;27;82226;-74
2021/10/25 01:01:18;;;;;;;3.97;1.80;;;11.20;51.20;;;;;;20890385;27;81970;-72
2021/10/25 01:11:20;;;;;;;6.35;1.88;;;11.10;51.60;;;;;;20892148;27;80833;-73
2021/10/25 01:21:22;;;;;;;5.78;2.30;;;11.00;52.10;;;;;;20892694;27;82267;-72
2021/10/25 01:31:25;;;;;;;7.65;2.05;;;11.00;52.30;;;;;;20891006;27;80183;-72
2021/10/25 01:41:28;;;;;;;5.33;2.03;;;10.90;52.90;;;;;;20889734;28;81952;-71
2021/10/25 01:51:33;;;;;;;3.85;1.80;;;10.60;53.60;;;;;;20889917;27;80361;-71
2021/10/25 02:01:39;;;;;;;4.93;2.03;;;10.50;54.00;;;;;;20887372;28;82266;-70
2021/10/25 02:11:42;;;;;;;4.63;2.17;;;10.40;54.40;;;;;;20887303;27;79997;-70
2021/10/25 02:21:53;;;;;;;5.03;1.70;;;10.30;54.70;;;;;;20887917;28;81801;-70
2021/10/25 02:31:57;;;;;;;4.05;2.10;;;10.20;55.20;;;;;;20888235;28;81786;-71
2021/10/25 02:42:02;;;;;;;5.70;2.03;;;10.10;55.40;;;;;;20875770;28;80867;-70
2021/10/25 02:52:06;;;;;;;5.75;2.05;;;9.90;55.80;;;;;;20848263;27;80835;-71
2021/10/25 03:02:28;;;;;;;5.50;1.67;;;9.80;56.20;;;;;;20820003;27;81586;-71
2021/10/25 03:12:36;;;;;;;22.98;4.30;;;9.70;56.60;;;;;;20792088;28;81573;-70
2021/10/25 03:22:57;;;;;;;10.18;2.15;;;9.50;57.30;;;;;;20800133;28;83607;-71
2021/10/25 03:33:16;;;;;;;7.60;2.67;;;9.50;57.50;;;;;;20799637;28;80646;-70
2021/10/25 03:43:34;;;;;;;5.57;2.30;;;9.40;58.90;;;;;;20798591;28;81855;-71
2021/10/25 04:35:00;;;;;;;4.57;1.92;;;9.00;60.60;;;;;;20799179;28;82014;-73
2021/10/25 04:45:08;;;;;;;4.60;1.80;;;8.90;61.40;;;;;;20809182;28;80084;-70
2021/10/25 04:55:14;;;;;;;6.90;1.60;;;8.90;61.40;;;;;;20808707;28;81978;-71
2021/10/25 05:05:18;;;;;;;6.88;1.98;;;8.90;61.90;;;;;;20809678;28;81675;-69
2021/10/25 05:15:20;;;;;;;3.03;1.50;;;9.00;61.70;;;;;;20810841;28;82054;-70
2021/10/25 05:25:23;;;;;;;8.05;1.98;;;9.00;61.50;;;;;;20818201;28;80016;-71
2021/10/25 05:35:26;;;;;;;;;;;8.90;61.80;;;;;;20816847;28;81918;-69
2021/10/25 05:45:29;;;;;;;11.45;4.35;;;8.90;62.20;;;;;;20896144;27;82172;-67
2021/10/25 05:55:31;;;;;;;11.23;4.20;;;8.90;62.10;;;;;;20869709;28;82016;-68
2021/10/25 06:05:34;;;;;;;13.05;3.90;;;8.90;62.00;;;;;;20878731;27;81919;-68
2021/10/25 06:15:41;;;;;;;7.75;3.00;;;8.80;62.00;;;;;;20868485;28;80080;-62
2021/10/25 06:25:51;;;;;;;9.77;2.25;;;8.70;62.00;;;;;;20878063;27;81704;-63
2021/10/25 06:36:12;;;;;;;9.68;2.72;;;8.60;62.10;;;;;;20876310;28;80996;-62
2021/10/25 06:46:15;;;;;;;8.60;2.60;;;8.70;62.40;;;;;;20867421;27;81913;-65
2021/10/25 06:56:17;;;;;;;7.97;2.47;;;8.80;62.30;;;;;;20871874;27;82088;-64
2021/10/25 07:06:21;;;;;;;12.30;3.00;;;8.90;62.20;;;;;;20867820;28;81428;-63
2021/10/25 07:16:34;;;;;;;8.85;3.63;;;9.00;61.90;;;;;;20870262;28;81838;-63
2021/10/25 08:28:31;;;;;;;14.00;4.60;;;11.70;54.80;;;;;;20885242;28;81956;-64
2021/10/25 08:48:55;;;;;;;29.85;5.82;;;12.80;52.00;;;;;;20879040;28;81464;-64
2021/10/25 08:59:00;;;;;;;12.55;4.47;;;13.20;50.70;;;;;;20878731;28;81969;-63
2021/10/25 09:09:06;;;;;;;16.52;4.13;;;13.60;49.40;;;;;;20878532;28;81551;-64
2021/10/25 09:19:18;;;;;;;12.82;3.30;;;14.20;48.20;;;;;;20875742;28;82136;-64
2021/10/25 09:29:26;;;;;;;9.85;3.08;;;14.90;46.50;;;;;;20878347;27;81954;-64
2021/10/25 09:40:38;;;;;;;9.82;3.30;;;15.50;44.30;;;;;;20879564;27;80781;-64
2021/10/25 09:50:07;;;;;;;15.18;3.63;;;17.50;40.50;;;;;;20872445;28;81566;-63
2021/10/25 10:00:11;;;;;;;13.55;4.20;;;19.60;36.50;;;;;;20877084;28;81979;-63
2021/10/25 10:10:19;;;;;;;19.33;5.93;;;23.90;29.90;;;;;;20875135;28;81014;-64
2021/10/25 10:20:37;;;;;;;14.05;4.10;;;26.60;26.30;;;;;;20870569;28;81874;-64
2021/10/25 10:31:24;;;;;;;12.27;4.03;;;28.60;24.10;;;;;;20874857;28;81910;-63
2021/10/25 10:41:45;;;;;;;8.88;3.20;;;32.00;21.40;;;;;;20872122;27;81395;-64
2021/10/25 10:52:18;;;;;;;10.65;3.28;;;33.60;19.90;;;;;;20872231;27;81286;-64
2021/10/25 11:02:20;;;;;;;11.30;3.17;;;36.00;18.20;;;;;;20869050;28;81908;-64
2021/10/25 11:12:23;;;;;;;10.27;2.20;;;37.90;16.80;;;;;;20868447;28;81822;-65
2021/10/25 11:22:33;;;;;;;8.77;3.05;;;39.30;16.00;;;;;;20867032;28;81703;-64
2021/10/25 11:32:37;;;;;;;9.83;2.90;;;39.90;15.40;;;;;;20869458;27;81100;-64
2021/10/25 11:42:43;;;;;;;16.70;3.15;;;39.00;16.00;;;;;;20869795;27;80790;-66
2021/10/25 11:52:59;;;;;;;7.85;2.45;;;35.30;18.90;;;;;;20872190;27;81398;-64
2021/10/25 12:03:10;;;;;;;7.88;2.63;;;33.90;19.70;;;;;;20865361;28;81974;-64
2021/10/25 12:13:13;;;;;;;14.10;3.10;;;36.70;17.70;;;;;;20864670;28;81554;-62
2021/10/25 12:23:20;;;;;;;8.93;3.10;;;37.80;16.80;;;;;;20868221;27;81601;-63
2021/10/25 12:33:24;;;;;;;6.90;1.92;;;35.30;18.30;;;;;;20868387;28;81668;-64
2021/10/25 12:43:41;;;;;;;5.60;2.15;;;35.00;18.20;;;;;;20865000;27;83185;-65
2021/10/25 12:53:47;;;;;;;8.38;3.05;;;33.50;19.00;;;;;;20816072;27;81809;-61
2021/10/25 13:03:50;;;;;;;13.02;3.65;;;31.90;20.50;;;;;;20884286;27;81970;-63
2021/10/25 13:13:55;;;;;;;9.85;3.22;;;37.10;17.10;;;;;;20885903;28;80753;-65
2021/10/25 13:23:57;;;;;;;8.48;3.40;;;39.90;15.10;;;;;;20893548;27;81580;-65
2021/10/25 13:34:00;;;;;;;9.45;2.88;;;36.20;17.20;;;;;;20891312;28;80876;-66
2021/10/25 13:44:04;;;;;;;7.05;2.92;;;32.40;20.40;;;;;;20839790;28;81884;-64
2021/10/25 13:54:06;;;;;;;7.55;2.58;;;34.70;18.20;;;;;;20889257;27;80198;-61
2021/10/25 14:04:15;;;;;;;9.13;3.10;;;36.30;17.20;;;;;;20888609;27;81941;-63
2021/10/25 14:14:25;;;;;;;5.50;1.98;;;34.10;18.70;;;;;;20867131;27;83027;-60
2021/10/25 14:24:31;;;;;;;5.75;1.42;;;33.30;19.70;;;;;;20878029;27;81914;-62
2021/10/25 14:34:35;;;;;;;4.68;2.50;;;37.30;16.10;;;;;;20854425;28;81028;-64
2021/10/25 14:55:11;;;;;;;3.35;1.10;;;35.30;17.00;;;;;;20818212;27;81162;-63
2021/10/25 15:05:12;;;;;;;4.78;1.73;;;35.40;16.70;;;;;;20800534;28;81331;-64
2021/10/25 15:15:15;;;;;;;5.10;1.45;;;34.10;17.70;;;;;;20793956;28;80341;-63
2021/10/25 15:25:18;;;;;;;7.32;2.10;;;29.80;21.00;;;;;;20791903;28;81210;-63
2021/10/25 15:35:19;;;;;;;4.53;1.92;;;27.00;24.00;;;;;;20831851;28;80151;-63
2021/10/25 15:45:22;;;;;;;2.83;1.10;;;25.40;25.30;;;;;;20855935;28;81466;-63
2021/10/25 15:55:24;;;;;;;5.35;1.63;;;24.40;26.50;;;;;;20881180;28;81870;-62
2021/10/25 16:05:30;;;;;;;12.15;1.92;;;23.60;27.10;;;;;;20819090;27;81885;-62
2021/10/25 16:15:32;;;;;;;9.43;1.70;;;23.10;28.00;;;;;;20836569;27;80480;-62
2021/10/25 16:25:34;;;;;;;6.95;3.75;;;22.50;29.60;;;;;;20799113;28;81738;-63
2021/10/25 16:35:36;;;;;;;9.00;2.38;;;22.00;30.90;;;;;;20817351;28;80055;-61
2021/10/25 16:45:43;;;;;;;8.68;2.75;;;21.60;31.20;;;;;;20849598;28;81813;-61
2021/10/25 17:16:08;;;;;;;9.30;4.00;;;20.30;34.80;;;;;;20883265;28;80808;-63
2021/10/25 17:26:12;;;;;;;10.15;4.38;;;19.90;35.40;;;;;;20881429;27;80136;-66
2021/10/25 17:36:15;;;;;;;15.45;3.97;;;19.50;36.30;;;;;;20868013;27;80781;-67
2021/10/25 17:46:17;;;;;;;15.18;3.75;;;19.10;37.50;;;;;;20888308;27;82069;-68
2021/10/25 17:56:20;;;;;;;9.80;4.00;;;18.80;37.80;;;;;;20888244;27;80818;-72
2021/10/25 18:06:31;;;;;;;12.85;4.97;;;18.50;38.40;;;;;;20887348;27;79864;-69
2021/10/25 18:16:35;;;;;;;12.55;5.47;;;18.30;39.30;;;;;;20833436;28;82124;-67
2021/10/25 18:26:38;;;;;;;15.35;5.80;;;18.00;39.50;;;;;;20827445;28;80984;-68
2021/10/25 18:36:41;;;;;;;21.35;7.43;;;17.90;40.20;;;;;;20846837;28;81065;-69
2021/10/25 18:46:43;;;;;;;14.98;5.90;;;17.60;40.90;;;;;;20886461;28;80689;-69
2021/10/25 18:56:45;;;;;;;19.90;8.63;;;17.30;41.60;;;;;;20880153;27;80891;-68
2021/10/25 19:06:47;;;;;;;18.93;7.73;;;17.10;42.40;;;;;;20859270;27;80764;-69
2021/10/25 19:16:50;;;;;;;17.37;7.17;;;16.90;42.80;;;;;;20888539;27;80036;-70
2021/10/25 19:26:52;;;;;;;25.17;9.45;;;16.70;43.80;;;;;;20886775;28;82017;-70
2021/10/25 19:36:55;;;;;;;23.17;7.63;;;16.50;44.20;;;;;;20886873;27;80707;-71
2021/10/25 19:46:57;;;;;;;;;;;16.40;44.80;;;;;;20886365;27;81861;-70
2021/10/25 19:57:02;;;;;;;20.40;7.33;;;16.10;45.60;;;;;;20865606;27;82178;-70
2021/10/25 20:07:05;;;;;;;;;;;16.00;45.80;;;;;;20846856;27;80115;-71
2021/10/25 20:17:07;;;;;;;13.32;3.28;;;15.80;45.50;;;;;;20835160;28;82121;-72
2021/10/25 20:27:10;;;;;;;;;;;15.60;45.10;;;;;;20825585;28;80131;-67
2021/10/25 20:37:12;;;;;;;7.03;2.72;;;15.40;44.80;;;;;;20845810;28;82295;-67
2021/10/25 20:47:14;;;;;;;10.80;3.07;;;15.20;45.00;;;;;;20827465;28;80619;-70
2021/10/25 20:57:16;;;;;;;10.10;2.45;;;15.00;45.10;;;;;;20809597;28;81907;-70
2021/10/25 21:07:18;;;;;;;7.60;2.43;;;14.80;45.30;;;;;;20812421;28;81234;-67
2021/10/25 21:17:20;;;;;;;8.88;2.33;;;14.60;45.50;;;;;;20810758;28;81999;-70
2021/10/25 21:27:23;;;;;;;8.97;2.63;;;14.40;45.70;;;;;;20810252;28;81882;-71
2021/10/25 21:37:24;;;;;;;8.30;1.98;;;14.30;46.00;;;;;;20840963;28;82030;-70
2021/10/25 21:47:26;;;;;;;8.48;2.92;;;14.20;46.20;;;;;;20810070;28;82021;-70
2021/10/25 21:57:27;;;;;;;12.45;3.33;;;14.10;46.60;;;;;;20808564;28;81638;-70
2021/10/25 22:07:31;;;;;;;;;;;13.90;46.70;;;;;;20859058;28;80815;-70
2021/10/25 22:17:33;;;;;;;5.00;2.40;;;13.70;46.90;;;;;;20851607;27;81166;-70
2021/10/25 22:27:36;;;;;;;8.83;2.70;;;13.50;47.60;;;;;;20805478;28;80033;-69
2021/10/25 22:37:39;;;;;;;8.30;2.17;;;13.40;47.80;;;;;;20804151;28;81954;-70
2021/10/25 22:47:49;;;;;;;10.33;2.00;;;13.20;48.30;;;;;;20804119;28;81900;-69
2021/10/25 22:57:51;;;;;;;5.90;2.28;;;13.00;48.90;;;;;;20802519;28;81707;-72
2021/10/25 23:07:53;;;;;;;8.88;2.35;;;12.90;49.10;;;;;;20803618;28;81835;-70
2021/10/25 23:17:55;;;;;;;11.55;3.05;;;12.90;49.40;;;;;;20801554;28;80490;-69
2021/10/25 23:27:57;;;;;;;7.93;2.63;;;12.70;50.00;;;;;;20801801;28;81188;-70
2021/10/25 23:38:00;;;;;;;5.47;2.30;;;12.60;50.20;;;;;;20799176;28;82067;-69
2021/10/25 23:48:03;;;;;;;7.13;2.50;;;12.50;50.60;;;;;;20798637;28;80601;-70
2021/10/25 23:58:04;;;;;;;7.80;2.53;;;12.40;51.00;;;;;;20796895;28;80950;-69
